createdAt,value
2022-09-30T00:01:58.746Z,10.60
2022-09-30T00:04:25.960Z,6.35
2022-09-30T00:06:53.729Z,8.73
2022-09-30T00:09:28.680Z,11.98
2022-09-30T00:11:55.989Z,6.55
2022-09-30T00:14:30.658Z,9.93
2022-09-30T00:16:57.908Z,5.75
2022-09-30T00:19:25.068Z,6.40
2022-09-30T00:21:58.628Z,7.45
2022-09-30T00:24:32.685Z,6.80
2022-09-30T00:27:13.727Z,7.45
2022-09-30T00:29:40.920Z,6.60
2022-09-30T00:32:14.710Z,5.43
2022-09-30T00:34:41.952Z,7.97
2022-09-30T00:37:11.654Z,8.15
2022-09-30T00:39:45.655Z,6.70
2022-09-30T00:42:14.466Z,8.38
2022-09-30T00:44:51.668Z,6.65
2022-09-30T00:47:28.640Z,9.90
2022-09-30T00:50:03.650Z,9.48
2022-09-30T00:52:37.601Z,13.45
2022-09-30T00:55:14.633Z,10.75
2022-09-30T00:57:41.877Z,13.30
2022-09-30T01:00:15.708Z,10.55
2022-09-30T01:02:42.874Z,10.05
2022-09-30T01:05:10.052Z,12.40
2022-09-30T01:07:43.671Z,12.13
2022-09-30T01:10:10.863Z,7.80
2022-09-30T01:12:44.693Z,9.02
2022-09-30T01:15:12.169Z,10.07
2022-09-30T01:18:04.827Z,11.13
2022-09-30T01:20:44.648Z,4.47
2022-09-30T01:23:44.657Z,7.05
2022-09-30T01:26:37.566Z,6.43
2022-09-30T01:29:23.243Z,8.95
2022-09-30T01:31:57.573Z,7.45
2022-09-30T01:34:38.896Z,10.68
2022-09-30T01:37:21.600Z,8.80
2022-09-30T01:40:05.743Z,9.55
2022-09-30T01:42:39.595Z,7.25
2022-09-30T01:45:07.894Z,9.93
2022-09-30T01:47:41.616Z,6.80
2022-09-30T01:50:19.284Z,15.00
2022-09-30T01:52:59.581Z,10.20
2022-09-30T01:55:36.864Z,9.98
2022-09-30T01:58:10.582Z,16.10
2022-09-30T02:00:40.120Z,10.35
2022-09-30T02:03:25.588Z,10.93
2022-09-30T02:06:16.104Z,10.82
2022-09-30T02:08:49.632Z,6.88
2022-09-30T02:11:18.967Z,11.00
2022-09-30T02:13:58.629Z,8.57
2022-09-30T02:16:40.070Z,11.00
2022-09-30T02:19:18.708Z,10.13
2022-09-30T02:21:47.728Z,11.52
2022-09-30T02:24:31.611Z,11.35
2022-09-30T02:27:09.528Z,9.55
2022-09-30T02:29:45.639Z,11.45
2022-09-30T02:32:42.389Z,14.55
2022-09-30T02:35:20.006Z,9.68
2022-09-30T02:37:50.598Z,9.68
2022-09-30T02:40:29.608Z,10.15
2022-09-30T02:42:56.826Z,8.02
2022-09-30T02:45:24.728Z,10.48
2022-09-30T02:48:04.774Z,9.82
2022-09-30T02:50:41.296Z,8.65
2022-09-30T02:53:14.753Z,8.45
2022-09-30T02:56:00.519Z,9.60
2022-09-30T02:58:35.694Z,5.78
2022-09-30T03:01:03.542Z,10.32
2022-09-30T03:03:47.668Z,8.43
2022-09-30T03:06:14.866Z,9.05
2022-09-30T03:08:48.737Z,9.98
2022-09-30T03:11:17.775Z,9.73
2022-09-30T03:14:06.840Z,9.40
2022-09-30T03:16:33.962Z,10.77
2022-09-30T03:19:37.768Z,9.10
2022-09-30T03:22:11.601Z,8.68
2022-09-30T03:25:03.750Z,8.20
2022-09-30T03:27:59.620Z,9.07
2022-09-30T03:30:27.670Z,9.65
2022-09-30T03:33:17.649Z,9.60
2022-09-30T03:35:48.544Z,9.18
2022-09-30T03:38:30.620Z,10.23
2022-09-30T03:41:08.610Z,13.85
2022-09-30T03:43:42.619Z,10.02
2022-09-30T03:46:18.803Z,8.15
2022-09-30T03:48:53.600Z,8.20
2022-09-30T03:51:21.486Z,6.88
2022-09-30T03:53:56.640Z,7.60
2022-09-30T03:56:31.906Z,9.52
2022-09-30T03:59:05.649Z,8.52
2022-09-30T04:01:32.927Z,8.35
2022-09-30T04:04:00.135Z,8.25
2022-09-30T04:06:33.731Z,8.63
2022-09-30T04:09:01.003Z,9.43
2022-09-30T04:11:28.247Z,7.78
2022-09-30T04:14:02.836Z,12.52
2022-09-30T04:16:30.584Z,9.05
2022-09-30T04:19:20.128Z,13.02
2022-09-30T04:21:54.031Z,10.93
2022-09-30T04:24:38.713Z,7.07
2022-09-30T04:27:19.819Z,6.05
2022-09-30T04:29:53.744Z,14.23
2022-09-30T04:32:22.363Z,21.95
2022-09-30T04:34:49.488Z,11.27
2022-09-30T04:37:23.744Z,7.43
2022-09-30T04:39:50.956Z,17.40
2022-09-30T04:42:24.799Z,13.88
2022-09-30T04:44:52.066Z,13.88
2022-09-30T04:47:19.169Z,10.80
2022-09-30T04:49:53.788Z,10.10
2022-09-30T04:52:20.979Z,11.45
2022-09-30T04:54:54.830Z,9.85
2022-09-30T04:57:21.959Z,14.90
2022-09-30T04:59:50.740Z,13.57
2022-09-30T05:02:24.808Z,9.48
2022-09-30T05:04:52.198Z,13.38
2022-09-30T05:07:25.863Z,10.63
2022-09-30T05:09:53.475Z,8.88
2022-09-30T05:12:20.784Z,6.70
2022-09-30T05:14:54.687Z,10.02
2022-09-30T05:17:22.226Z,36.75
2022-09-30T05:22:24.709Z,79.15
2022-09-30T05:25:05.763Z,57.97
2022-09-30T05:27:39.547Z,118.65
2022-09-30T05:30:13.855Z,158.80
2022-09-30T05:32:40.947Z,21.75
2022-09-30T05:35:09.306Z,44.05
2022-09-30T05:37:42.744Z,146.90
2022-09-30T05:40:10.007Z,159.57
2022-09-30T05:42:43.718Z,143.73
2022-09-30T05:45:11.008Z,110.68
2022-09-30T05:47:44.860Z,123.72
2022-09-30T05:50:12.094Z,119.40
2022-09-30T05:52:39.190Z,67.85
2022-09-30T05:55:12.840Z,32.80
2022-09-30T05:57:40.092Z,73.00
2022-09-30T06:00:13.777Z,35.35
2022-09-30T06:02:41.554Z,47.35
2022-09-30T06:05:09.609Z,58.17
2022-09-30T06:07:43.805Z,49.33
2022-09-30T06:10:12.394Z,124.20
2022-09-30T06:12:46.889Z,22.67
2022-09-30T06:15:14.052Z,22.83
2022-09-30T06:17:42.610Z,23.73
2022-09-30T06:20:17.857Z,26.35
2022-09-30T06:22:45.127Z,14.05
2022-09-30T06:25:25.766Z,10.93
2022-09-30T06:27:59.955Z,9.20
2022-09-30T06:30:35.384Z,11.13
2022-09-30T06:33:02.752Z,10.82
2022-09-30T06:35:29.965Z,10.98
2022-09-30T06:38:03.868Z,14.35
2022-09-30T06:40:31.112Z,11.70
2022-09-30T06:43:01.849Z,11.10
2022-09-30T06:45:35.899Z,10.50
2022-09-30T06:48:10.887Z,15.02
2022-09-30T06:50:39.248Z,14.88
2022-09-30T06:53:08.330Z,14.05
2022-09-30T06:55:45.807Z,15.95
2022-09-30T06:58:17.012Z,10.75
2022-09-30T07:00:50.848Z,9.02
2022-09-30T07:03:24.377Z,16.20
2022-09-30T07:06:04.726Z,12.15
2022-09-30T07:08:32.817Z,12.73
2022-09-30T07:11:00.529Z,11.00
2022-09-30T07:13:34.881Z,19.55
2022-09-30T07:16:02.173Z,9.45
2022-09-30T07:18:29.358Z,8.23
2022-09-30T07:21:03.790Z,9.68
2022-09-30T07:23:32.003Z,20.25
2022-09-30T07:26:15.093Z,10.82
2022-09-30T07:28:43.626Z,10.85
2022-09-30T07:31:39.270Z,8.20
2022-09-30T07:34:07.548Z,8.98
2022-09-30T07:36:43.730Z,10.77
2022-09-30T07:39:11.516Z,9.73
2022-09-30T07:41:46.764Z,14.85
2022-09-30T07:44:14.937Z,12.50
2022-09-30T07:46:49.830Z,11.73
2022-09-30T07:49:25.048Z,14.45
2022-09-30T07:51:59.854Z,10.43
2022-09-30T07:54:28.874Z,11.75
2022-09-30T07:57:10.081Z,10.40
2022-09-30T07:59:39.966Z,9.88
2022-09-30T08:02:14.911Z,11.98
2022-09-30T08:04:44.274Z,8.63
2022-09-30T08:07:19.060Z,9.23
2022-09-30T08:09:46.300Z,8.52
2022-09-30T08:12:13.618Z,12.50
2022-09-30T08:14:47.805Z,7.68
2022-09-30T08:17:15.016Z,8.93
2022-09-30T08:19:44.658Z,9.27
2022-09-30T08:22:21.014Z,7.88
2022-09-30T08:25:08.674Z,7.00
2022-09-30T08:27:42.866Z,9.18
2022-09-30T08:30:10.437Z,10.82
2022-09-30T08:35:11.924Z,7.68
2022-09-30T08:37:39.160Z,6.63
2022-09-30T08:40:06.643Z,6.40
2022-09-30T08:42:45.356Z,4.80
2022-09-30T08:45:22.470Z,6.20
2022-09-30T08:47:58.748Z,6.30
2022-09-30T08:51:04.808Z,12.52
2022-09-30T08:53:40.792Z,4.10
2022-09-30T08:56:08.972Z,4.20
2022-09-30T08:58:48.801Z,3.95
2022-09-30T09:01:25.090Z,2.35
2022-09-30T09:03:58.772Z,3.08
2022-09-30T09:06:38.321Z,6.75
2022-09-30T09:09:31.861Z,3.17
2022-09-30T09:12:14.427Z,3.20
2022-09-30T09:14:50.923Z,3.50
2022-09-30T09:18:18.733Z,3.45
2022-09-30T09:20:55.809Z,3.35
2022-09-30T09:23:23.223Z,3.60
2022-09-30T09:26:03.827Z,4.18
2022-09-30T09:28:40.459Z,2.08
2022-09-30T09:31:21.016Z,3.38
2022-09-30T09:33:48.328Z,2.70
2022-09-30T09:36:28.918Z,2.53
2022-09-30T09:38:56.326Z,3.42
2022-09-30T09:41:48.836Z,2.70
2022-09-30T09:44:28.696Z,3.72
2022-09-30T09:47:11.783Z,3.38
2022-09-30T09:49:46.701Z,3.05
2022-09-30T09:52:13.939Z,2.35
2022-09-30T09:54:49.729Z,2.83
2022-09-30T09:57:18.492Z,2.25
2022-09-30T10:00:04.780Z,2.20
2022-09-30T10:02:33.070Z,3.17
2022-09-30T10:05:01.539Z,2.92
2022-09-30T10:07:35.758Z,2.65
2022-09-30T10:10:27.707Z,3.67
2022-09-30T10:13:01.805Z,2.28
2022-09-30T10:15:29.256Z,3.15
2022-09-30T10:17:57.691Z,2.28
2022-09-30T10:20:35.874Z,3.47
2022-09-30T10:25:43.894Z,1.88
2022-09-30T10:28:22.947Z,2.42
2022-09-30T10:31:00.825Z,4.93
2022-09-30T10:33:30.730Z,2.80
2022-09-30T10:36:12.991Z,3.30
2022-09-30T10:38:48.007Z,2.03
2022-09-30T10:41:29.202Z,4.05
2022-09-30T10:44:04.702Z,3.00
2022-09-30T10:46:45.882Z,3.08
2022-09-30T10:49:24.685Z,3.97
2022-09-30T10:51:58.787Z,3.65
2022-09-30T10:54:40.915Z,2.72
2022-09-30T10:57:21.810Z,3.78
2022-09-30T10:59:49.517Z,2.75
2022-09-30T11:02:26.150Z,4.90
2022-09-30T11:04:59.457Z,5.25
2022-09-30T11:07:52.995Z,4.55
2022-09-30T11:10:35.166Z,5.10
2022-09-30T11:13:17.833Z,5.05
2022-09-30T11:15:57.478Z,2.72
2022-09-30T11:18:36.997Z,3.28
2022-09-30T11:21:26.973Z,2.78
2022-09-30T11:24:15.848Z,2.13
2022-09-30T11:29:26.918Z,3.58
2022-09-30T11:32:19.860Z,1.70
2022-09-30T11:35:32.888Z,3.67
2022-09-30T11:38:15.738Z,3.03
2022-09-30T11:41:00.437Z,5.15
2022-09-30T11:43:51.779Z,2.80
2022-09-30T11:46:25.570Z,2.95
2022-09-30T11:48:59.730Z,3.20
2022-09-30T11:51:42.418Z,2.85
2022-09-30T11:54:24.741Z,2.88
2022-09-30T11:56:57.104Z,3.55
2022-09-30T11:59:42.754Z,3.40
2022-09-30T12:02:32.574Z,2.75
2022-09-30T12:05:18.732Z,2.97
2022-09-30T12:07:48.286Z,2.50
2022-09-30T12:10:42.741Z,2.05
2022-09-30T12:13:27.558Z,3.58
2022-09-30T12:16:03.791Z,2.17
2022-09-30T12:18:33.538Z,1.95
2022-09-30T12:21:09.919Z,2.90
2022-09-30T12:23:40.855Z,2.58
2022-09-30T12:26:21.879Z,3.22
2022-09-30T12:29:15.687Z,4.25
2022-09-30T12:31:50.076Z,1.48
2022-09-30T12:34:20.740Z,3.72
2022-09-30T12:37:13.973Z,1.60
2022-09-30T12:39:54.386Z,1.55
2022-09-30T12:42:36.089Z,3.35
2022-09-30T12:45:22.065Z,2.97
2022-09-30T12:48:03.970Z,2.38
2022-09-30T12:50:35.024Z,2.13
2022-09-30T12:53:17.907Z,2.08
2022-09-30T12:55:45.311Z,3.60
2022-09-30T12:58:38.954Z,1.20
2022-09-30T13:01:14.798Z,2.47
2022-09-30T13:03:46.949Z,2.13
2022-09-30T13:06:21.757Z,2.33
2022-09-30T13:09:06.110Z,2.67
2022-09-30T13:11:43.853Z,6.20
2022-09-30T13:14:17.277Z,1.67
2022-09-30T13:17:09.865Z,1.95
2022-09-30T13:19:40.349Z,1.73
2022-09-30T13:22:30.946Z,4.05
2022-09-30T13:25:05.025Z,3.83
2022-09-30T13:27:52.984Z,1.60
2022-09-30T13:30:20.300Z,2.42
2022-09-30T13:32:48.525Z,2.50
2022-09-30T13:35:38.916Z,2.88
2022-09-30T13:38:21.779Z,1.55
2022-09-30T13:41:07.244Z,2.75
2022-09-30T13:43:44.783Z,3.72
2022-09-30T13:46:22.740Z,1.50
2022-09-30T13:49:01.796Z,4.40
2022-09-30T13:51:30.531Z,3.15
2022-09-30T13:54:06.813Z,3.03
2022-09-30T13:56:35.226Z,3.00
2022-09-30T13:59:42.784Z,2.17
2022-09-30T14:02:35.053Z,2.45
2022-09-30T14:05:22.791Z,2.67
2022-09-30T14:08:07.924Z,5.32
2022-09-30T14:11:03.819Z,5.47
2022-09-30T14:13:37.264Z,1.88
2022-09-30T14:16:13.881Z,4.50
2022-09-30T14:18:58.231Z,1.77
2022-09-30T14:21:34.788Z,4.35
2022-09-30T14:24:04.285Z,2.38
2022-09-30T14:26:53.923Z,3.35
2022-09-30T14:29:34.678Z,5.15
2022-09-30T14:32:08.830Z,6.50
2022-09-30T14:34:36.587Z,3.97
2022-09-30T14:37:04.246Z,4.95
2022-09-30T14:42:11.817Z,2.90
2022-09-30T14:44:45.921Z,1.98
2022-09-30T14:47:22.792Z,2.08
2022-09-30T14:49:50.352Z,7.25
2022-09-30T14:52:41.829Z,2.83
2022-09-30T14:55:25.423Z,3.80
2022-09-30T14:58:00.998Z,5.75
2022-09-30T15:00:29.753Z,2.50
2022-09-30T15:02:56.916Z,3.63
2022-09-30T15:05:30.880Z,6.57
2022-09-30T15:07:58.121Z,4.30
2022-09-30T15:10:33.080Z,3.17
2022-09-30T15:13:00.381Z,2.92
2022-09-30T15:15:40.041Z,8.02
2022-09-30T15:18:32.827Z,5.07
2022-09-30T15:21:02.310Z,6.30
2022-09-30T15:23:37.829Z,5.25
2022-09-30T15:26:12.736Z,6.10
2022-09-30T15:28:46.972Z,3.08
2022-09-30T15:31:20.081Z,2.55
2022-09-30T15:33:54.010Z,3.45
2022-09-30T15:36:21.483Z,2.80
2022-09-30T15:38:50.672Z,3.88
2022-09-30T15:41:24.978Z,6.35
2022-09-30T15:43:54.062Z,2.70
2022-09-30T15:46:35.394Z,2.90
2022-09-30T15:49:03.899Z,2.92
2022-09-30T15:51:48.893Z,3.00
2022-09-30T15:54:16.058Z,2.92
2022-09-30T15:56:49.896Z,6.85
2022-09-30T15:59:17.008Z,4.85
2022-09-30T16:01:59.040Z,5.55
2022-09-30T16:04:26.347Z,3.95
2022-09-30T16:07:20.089Z,2.70
2022-09-30T16:09:48.758Z,2.97
2022-09-30T16:12:16.001Z,5.38
2022-09-30T16:14:55.108Z,6.03
2022-09-30T16:17:36.829Z,4.65
2022-09-30T16:20:17.549Z,3.45
2022-09-30T16:22:51.855Z,5.57
2022-09-30T16:25:41.049Z,3.28
2022-09-30T16:28:22.892Z,3.20
2022-09-30T16:30:51.818Z,3.83
2022-09-30T16:33:25.845Z,3.28
2022-09-30T16:35:53.091Z,3.60
2022-09-30T16:38:26.840Z,3.75
2022-09-30T16:40:54.095Z,2.70
2022-09-30T16:43:27.836Z,4.50
2022-09-30T16:45:55.051Z,2.85
2022-09-30T16:48:29.074Z,3.33
2022-09-30T16:51:08.606Z,3.58
2022-09-30T16:53:43.365Z,3.83
2022-09-30T16:56:17.322Z,3.33
2022-09-30T16:58:51.153Z,3.75
2022-09-30T17:01:22.559Z,3.63
2022-09-30T17:03:50.148Z,4.18
2022-09-30T17:06:25.007Z,4.30
2022-09-30T17:08:53.805Z,2.50
2022-09-30T17:11:34.063Z,2.53
2022-09-30T17:14:01.713Z,4.43
2022-09-30T17:19:02.937Z,5.43
2022-09-30T17:21:30.222Z,3.47
2022-09-30T17:24:04.919Z,2.83
2022-09-30T17:26:39.263Z,3.78
2022-09-30T17:29:31.926Z,4.90
2022-09-30T17:32:00.249Z,2.47
2022-09-30T17:34:35.167Z,3.00
2022-09-30T17:37:02.364Z,3.13
2022-09-30T17:39:29.569Z,2.90
2022-09-30T17:42:22.010Z,4.03
2022-09-30T17:44:49.208Z,3.53
2022-09-30T17:47:16.513Z,5.13
2022-09-30T17:49:49.954Z,5.32
2022-09-30T17:52:18.142Z,5.85
2022-09-30T17:54:52.575Z,3.60
2022-09-30T17:57:20.832Z,5.32
2022-09-30T17:59:47.939Z,4.50
2022-09-30T18:02:24.081Z,4.63
2022-09-30T18:04:51.343Z,3.90
2022-09-30T18:07:28.538Z,6.28
2022-09-30T18:09:55.826Z,4.28
2022-09-30T18:12:23.010Z,5.05
2022-09-30T18:14:56.939Z,4.60
2022-09-30T18:17:25.368Z,5.93
2022-09-30T18:19:58.992Z,4.13
2022-09-30T18:22:26.163Z,4.70
2022-09-30T18:25:19.126Z,4.35
2022-09-30T18:28:03.980Z,6.45
2022-09-30T18:30:31.319Z,4.38
2022-09-30T18:33:05.925Z,4.45
2022-09-30T18:35:33.712Z,6.60
2022-09-30T18:38:01.027Z,3.50
2022-09-30T18:40:36.072Z,6.47
2022-09-30T18:43:05.375Z,4.60
2022-09-30T18:45:35.732Z,7.93
2022-09-30T18:48:09.974Z,4.35
2022-09-30T18:50:37.429Z,6.03
2022-09-30T18:53:09.439Z,4.57
2022-09-30T18:55:46.960Z,4.20
2022-09-30T18:58:24.040Z,5.30
2022-09-30T19:00:51.337Z,7.43
2022-09-30T19:03:19.157Z,7.50
2022-09-30T19:05:52.963Z,6.00
2022-09-30T19:08:20.231Z,10.98
2022-09-30T19:10:54.027Z,5.63
2022-09-30T19:13:23.719Z,10.38
2022-09-30T19:15:50.889Z,9.50
2022-09-30T19:18:24.963Z,5.38
2022-09-30T19:20:52.460Z,7.50
2022-09-30T19:23:26.169Z,10.85
2022-09-30T19:26:12.884Z,5.05
2022-09-30T19:28:47.035Z,7.47
2022-09-30T19:31:17.195Z,6.35
2022-09-30T19:33:55.101Z,6.05
2022-09-30T19:36:36.958Z,7.95
2022-09-30T19:39:12.176Z,7.40
2022-09-30T19:41:46.060Z,5.15
2022-09-30T19:44:19.284Z,6.03
2022-09-30T19:46:56.265Z,4.68
2022-09-30T19:49:23.707Z,9.73
2022-09-30T19:52:08.595Z,4.90
2022-09-30T19:54:41.982Z,5.32
2022-09-30T19:59:43.361Z,4.38
2022-09-30T20:02:11.155Z,6.53
2022-09-30T20:04:46.008Z,7.13
2022-09-30T20:07:14.926Z,6.38
2022-09-30T20:09:49.120Z,10.10
2022-09-30T20:12:16.335Z,10.70
2022-09-30T20:15:09.157Z,9.15
2022-09-30T20:17:36.406Z,7.35
2022-09-30T20:20:29.165Z,6.85
2022-09-30T20:22:57.163Z,10.05
2022-09-30T20:25:24.321Z,8.10
2022-09-30T20:27:58.090Z,10.50
2022-09-30T20:30:26.909Z,8.93
2022-09-30T20:33:01.030Z,10.43
2022-09-30T20:35:28.543Z,6.93
2022-09-30T20:38:02.032Z,9.02
2022-09-30T20:40:29.271Z,15.20
2022-09-30T20:43:01.503Z,12.18
2022-09-30T20:45:35.957Z,14.55
2022-09-30T20:48:03.327Z,10.52
2022-09-30T20:50:43.017Z,10.48
2022-09-30T20:53:10.963Z,7.97
2022-09-30T20:55:46.172Z,17.42
2022-09-30T20:58:13.821Z,8.07
2022-09-30T21:03:16.019Z,8.60
2022-09-30T21:05:51.771Z,13.80
2022-09-30T21:08:26.088Z,11.93
2022-09-30T21:10:53.371Z,8.13
2022-09-30T21:13:20.571Z,12.77
2022-09-30T21:15:54.005Z,12.70
2022-09-30T21:18:21.384Z,10.25
2022-09-30T21:21:02.137Z,15.90
2022-09-30T21:23:30.131Z,16.42
2022-09-30T21:26:15.216Z,16.30
2022-09-30T21:28:50.782Z,14.85
2022-09-30T21:31:33.316Z,17.10
2022-09-30T21:34:00.913Z,18.95
2022-09-30T21:36:35.218Z,15.52
2022-09-30T21:39:02.842Z,23.23
2022-09-30T21:44:04.013Z,14.10
2022-09-30T21:46:31.344Z,22.98
2022-09-30T21:49:13.245Z,15.80
2022-09-30T21:51:40.731Z,15.75
2022-09-30T21:54:10.065Z,18.38
2022-09-30T21:56:44.010Z,19.23
2022-09-30T21:59:11.288Z,24.35
2022-09-30T22:01:45.077Z,13.88
2022-09-30T22:04:13.267Z,17.13
2022-09-30T22:06:40.379Z,16.95
2022-09-30T22:09:14.050Z,20.58
2022-09-30T22:11:42.439Z,16.67
2022-09-30T22:14:22.050Z,16.98
2022-09-30T22:16:49.294Z,19.90
2022-09-30T22:19:23.183Z,25.33
2022-09-30T22:21:50.451Z,17.35
2022-09-30T22:24:17.582Z,21.02
2022-09-30T22:26:52.077Z,14.60
2022-09-30T22:29:26.002Z,20.08
2022-09-30T22:32:00.229Z,23.10
2022-09-30T22:34:46.250Z,27.23
2022-09-30T22:37:39.035Z,13.77
2022-09-30T22:40:13.044Z,19.52
2022-09-30T22:42:47.143Z,18.17
2022-09-30T22:45:14.559Z,15.95
2022-09-30T22:47:41.654Z,26.42
2022-09-30T22:50:16.079Z,24.33
2022-09-30T22:52:43.350Z,14.85
2022-09-30T22:55:10.510Z,11.10
2022-09-30T22:57:44.066Z,14.48
2022-09-30T23:00:18.126Z,10.70
2022-09-30T23:02:45.448Z,10.52
2022-09-30T23:05:12.644Z,15.10
2022-09-30T23:07:47.135Z,18.58
2022-09-30T23:10:14.659Z,9.88
2022-09-30T23:12:48.105Z,15.27
2022-09-30T23:15:15.577Z,10.68
2022-09-30T23:17:43.127Z,12.68
2022-09-30T23:20:17.137Z,14.25
2022-09-30T23:22:44.437Z,11.70
2022-09-30T23:25:18.004Z,12.25
2022-09-30T23:27:52.091Z,10.77
2022-09-30T23:30:25.963Z,8.55
2022-09-30T23:33:00.104Z,10.85
2022-09-30T23:35:27.299Z,9.43
2022-09-30T23:37:57.342Z,7.82
2022-09-30T23:40:31.052Z,11.30
2022-09-30T23:42:58.216Z,8.20
2022-09-30T23:45:32.150Z,9.95
2022-09-30T23:47:59.461Z,7.13
2022-09-30T23:50:26.581Z,8.52
2022-09-30T23:53:00.120Z,8.00
2022-09-30T23:55:27.907Z,7.43
2022-09-30T23:58:02.206Z,9.48
